createdAt,value
2017-10-05T00:01:06.240Z,74.55
2017-10-05T00:03:35.362Z,74.49
2017-10-05T00:06:04.624Z,75.38
2017-10-05T00:08:33.380Z,76.07
2017-10-05T00:11:01.957Z,77.23
2017-10-05T00:13:30.307Z,77.78
2017-10-05T00:15:59.163Z,77.92
2017-10-05T00:18:28.326Z,77.75
2017-10-05T00:20:56.874Z,77.10
2017-10-05T00:23:25.601Z,77.01
2017-10-05T00:25:53.991Z,77.63
2017-10-05T00:28:22.352Z,77.75
2017-10-05T00:30:50.975Z,77.30
2017-10-05T00:33:19.654Z,76.59
2017-10-05T00:35:49.498Z,77.13
2017-10-05T00:38:18.611Z,78.11
2017-10-05T00:40:46.993Z,78.17
2017-10-05T00:43:17.115Z,76.90
2017-10-05T00:45:46.304Z,76.72
2017-10-05T00:48:15.499Z,77.51
2017-10-05T00:50:43.862Z,78.34
2017-10-05T00:53:12.290Z,77.39
2017-10-05T00:55:41.080Z,78.14
2017-10-05T00:58:09.409Z,78.14
2017-10-05T01:00:37.762Z,78.09
2017-10-05T01:03:06.137Z,77.33
2017-10-05T01:05:34.486Z,77.53
2017-10-05T01:08:02.909Z,77.62
2017-10-05T01:10:31.712Z,78.01
2017-10-05T01:13:00.468Z,78.04
2017-10-05T01:15:28.830Z,77.79
2017-10-05T01:17:57.606Z,77.99
2017-10-05T01:20:25.963Z,77.32
2017-10-05T01:22:54.311Z,76.95
2017-10-05T01:25:22.691Z,77.29
2017-10-05T01:27:51.405Z,77.16
2017-10-05T01:30:20.514Z,76.98
2017-10-05T01:32:49.482Z,76.31
2017-10-05T01:35:18.937Z,76.60
2017-10-05T01:37:47.539Z,77.05
2017-10-05T01:40:16.299Z,77.02
2017-10-05T01:42:44.634Z,77.16
2017-10-05T01:45:13.009Z,76.59
2017-10-05T01:47:41.393Z,77.41
2017-10-05T01:50:09.748Z,77.15
2017-10-05T01:52:39.019Z,77.30
2017-10-05T01:55:07.619Z,77.39
2017-10-05T01:57:36.657Z,77.95
2017-10-05T02:00:06.299Z,78.00
2017-10-05T02:02:34.783Z,77.69
2017-10-05T02:05:03.126Z,78.07
2017-10-05T02:07:31.473Z,77.51
2017-10-05T02:09:59.953Z,77.25
2017-10-05T02:12:28.321Z,77.10
2017-10-05T02:14:56.739Z,76.94
2017-10-05T02:17:26.803Z,77.36
2017-10-05T02:19:55.143Z,76.57
2017-10-05T02:22:24.253Z,76.26
2017-10-05T02:24:54.843Z,76.50
2017-10-05T02:27:23.186Z,75.89
2017-10-05T02:29:52.331Z,76.60
2017-10-05T02:32:22.163Z,76.67
2017-10-05T02:34:50.536Z,76.03
2017-10-05T02:37:18.890Z,76.12
2017-10-05T02:39:47.278Z,76.19
2017-10-05T02:42:16.414Z,77.04
2017-10-05T02:44:46.329Z,77.37
2017-10-05T02:47:16.131Z,77.80
2017-10-05T02:49:45.242Z,77.59
2017-10-05T02:52:13.595Z,79.01
2017-10-05T02:54:42.786Z,78.48
2017-10-05T02:57:12.260Z,79.14
2017-10-05T02:59:40.607Z,79.49
2017-10-05T03:02:08.972Z,79.31
2017-10-05T03:04:38.528Z,78.55
2017-10-05T03:07:06.869Z,79.39
2017-10-05T03:09:35.580Z,78.83
2017-10-05T03:12:03.913Z,79.18
2017-10-05T03:14:33.040Z,79.55
2017-10-05T03:17:01.645Z,79.57
2017-10-05T03:19:30.450Z,79.20
2017-10-05T03:21:59.425Z,79.04
2017-10-05T03:24:27.812Z,78.85
2017-10-05T03:26:56.164Z,79.47
2017-10-05T03:29:24.503Z,79.60
2017-10-05T03:31:53.653Z,79.67
2017-10-05T03:34:22.886Z,79.68
2017-10-05T03:36:51.249Z,80.55
2017-10-05T03:39:19.639Z,81.62
2017-10-05T03:41:48.012Z,81.54
2017-10-05T03:44:17.270Z,80.98
2017-10-05T03:46:46.845Z,80.99
2017-10-05T03:49:15.527Z,80.46
2017-10-05T03:51:45.206Z,80.94
2017-10-05T03:54:13.631Z,80.98
2017-10-05T03:56:43.534Z,81.74
2017-10-05T03:59:11.883Z,81.93
2017-10-05T04:01:41.040Z,81.30
2017-10-05T04:04:09.773Z,81.06
2017-10-05T04:06:38.178Z,81.08
2017-10-05T04:09:07.469Z,81.49
2017-10-05T04:11:35.857Z,81.59
2017-10-05T04:14:04.202Z,81.68
2017-10-05T04:16:32.790Z,81.90
2017-10-05T04:19:01.297Z,82.15
2017-10-05T04:21:29.642Z,81.23
2017-10-05T04:23:58.629Z,80.78
2017-10-05T04:26:27.898Z,81.33
2017-10-05T04:28:56.238Z,82.46
2017-10-05T04:31:25.008Z,82.25
2017-10-05T04:33:53.442Z,82.40
2017-10-05T04:36:22.548Z,82.97
2017-10-05T04:38:52.544Z,82.55
2017-10-05T04:41:20.941Z,82.40
2017-10-05T04:43:51.392Z,82.82
2017-10-05T04:46:19.922Z,82.36
2017-10-05T04:48:49.132Z,82.73
2017-10-05T04:51:18.525Z,83.56
2017-10-05T04:53:47.726Z,82.67
2017-10-05T04:56:16.871Z,82.67
2017-10-05T04:58:45.919Z,82.29
2017-10-05T05:01:16.071Z,82.85
2017-10-05T05:03:45.051Z,82.76
2017-10-05T05:06:14.185Z,83.24
2017-10-05T05:08:43.328Z,84.07
2017-10-05T05:11:11.845Z,84.67
2017-10-05T05:13:40.977Z,84.00
2017-10-05T05:16:10.321Z,83.88
2017-10-05T05:18:40.390Z,82.93
2017-10-05T05:21:09.775Z,83.09
2017-10-05T05:23:38.831Z,83.88
2017-10-05T05:26:07.677Z,84.49
2017-10-05T05:28:36.373Z,84.79
2017-10-05T05:31:04.900Z,83.33
2017-10-05T05:33:34.029Z,83.00
2017-10-05T05:36:02.873Z,83.03
2017-10-05T05:38:31.284Z,82.58
2017-10-05T05:40:59.626Z,83.33
2017-10-05T05:43:28.149Z,83.70
2017-10-05T05:45:56.808Z,83.54
2017-10-05T05:48:25.169Z,82.99
2017-10-05T05:50:53.571Z,83.91
2017-10-05T05:53:23.992Z,83.02
2017-10-05T05:55:52.387Z,82.31
2017-10-05T05:58:22.190Z,82.93
2017-10-05T06:00:50.644Z,82.51
2017-10-05T06:03:20.447Z,83.59
2017-10-05T06:05:49.049Z,82.94
2017-10-05T06:08:17.546Z,83.52
2017-10-05T06:10:46.170Z,83.72
2017-10-05T06:13:15.265Z,84.38
2017-10-05T06:15:43.967Z,84.31
2017-10-05T06:18:13.083Z,84.57
2017-10-05T06:20:41.431Z,83.95
2017-10-05T06:23:11.102Z,83.50
2017-10-05T06:25:39.507Z,84.28
2017-10-05T06:28:07.863Z,84.32
2017-10-05T06:30:36.281Z,83.88
2017-10-05T06:33:04.609Z,84.21
2017-10-05T06:35:33.655Z,83.83
2017-10-05T06:38:02.000Z,83.82
2017-10-05T06:40:31.588Z,85.26
2017-10-05T06:42:59.922Z,84.04
2017-10-05T06:45:28.288Z,83.73
2017-10-05T06:47:56.669Z,83.67
2017-10-05T06:50:25.020Z,83.31
2017-10-05T06:52:53.506Z,83.73
2017-10-05T06:55:21.854Z,83.38
2017-10-05T06:57:50.412Z,84.29
2017-10-05T07:00:19.626Z,82.52
2017-10-05T07:02:48.003Z,83.00
2017-10-05T07:05:18.935Z,83.30
2017-10-05T07:07:47.320Z,82.50
2017-10-05T07:10:16.093Z,83.17
2017-10-05T07:12:45.986Z,83.81
2017-10-05T07:15:16.222Z,84.77
2017-10-05T07:17:44.553Z,85.16
2017-10-05T07:20:13.680Z,84.77
2017-10-05T07:22:43.945Z,84.81
2017-10-05T07:25:13.179Z,84.93
2017-10-05T07:27:42.159Z,84.88
2017-10-05T07:30:10.873Z,84.74
2017-10-05T07:32:39.992Z,85.16
2017-10-05T07:35:08.971Z,84.46
2017-10-05T07:37:38.172Z,83.96
2017-10-05T07:40:07.202Z,84.81
2017-10-05T07:42:36.233Z,84.89
2017-10-05T07:45:05.534Z,84.79
2017-10-05T07:47:34.184Z,84.37
2017-10-05T07:50:02.562Z,84.18
2017-10-05T07:52:31.964Z,83.72
2017-10-05T07:55:01.022Z,84.54
2017-10-05T07:57:30.132Z,84.38
2017-10-05T07:59:58.902Z,84.81
2017-10-05T08:02:28.828Z,84.39
2017-10-05T08:04:57.164Z,85.14
2017-10-05T08:07:26.330Z,84.86
2017-10-05T08:09:54.739Z,85.39
2017-10-05T08:12:23.606Z,86.00
2017-10-05T08:14:52.745Z,86.49
2017-10-05T08:17:21.563Z,86.00
2017-10-05T08:19:49.937Z,85.72
2017-10-05T08:22:18.998Z,86.07
2017-10-05T08:24:47.365Z,86.11
2017-10-05T08:27:15.772Z,86.34
2017-10-05T08:29:44.181Z,86.09
2017-10-05T08:32:13.331Z,86.87
2017-10-05T08:34:41.683Z,86.55
2017-10-05T08:37:10.926Z,86.57
2017-10-05T08:39:39.926Z,86.70
2017-10-05T08:42:09.220Z,86.54
2017-10-05T08:44:38.762Z,86.16
2017-10-05T08:47:07.834Z,85.85
2017-10-05T08:49:36.195Z,85.65
2017-10-05T08:52:04.577Z,86.45
2017-10-05T08:54:32.935Z,86.81
2017-10-05T08:57:01.954Z,86.71
2017-10-05T08:59:31.429Z,86.00
2017-10-05T09:01:59.768Z,86.57
2017-10-05T09:04:28.527Z,85.62
2017-10-05T09:06:58.168Z,86.01
2017-10-05T09:09:26.513Z,87.52
2017-10-05T09:11:55.460Z,87.66
2017-10-05T09:14:25.450Z,87.00
2017-10-05T09:16:53.825Z,87.25
2017-10-05T09:19:22.939Z,87.66
2017-10-05T09:21:51.851Z,88.34
2017-10-05T09:24:20.203Z,88.11
2017-10-05T09:26:49.355Z,87.83
2017-10-05T09:29:18.544Z,88.16
2017-10-05T09:31:47.912Z,87.70
2017-10-05T09:34:16.976Z,87.90
2017-10-05T09:36:45.347Z,87.16
2017-10-05T09:39:14.459Z,87.24
2017-10-05T09:41:44.909Z,87.45
2017-10-05T09:44:13.284Z,87.41
2017-10-05T09:46:41.635Z,88.04
2017-10-05T09:49:10.006Z,87.58
2017-10-05T09:51:40.883Z,86.75
2017-10-05T09:54:09.278Z,87.36
2017-10-05T09:56:37.847Z,87.38
2017-10-05T09:59:06.228Z,87.27
2017-10-05T10:01:34.560Z,86.58
2017-10-05T10:04:03.153Z,85.72
2017-10-05T10:06:32.290Z,85.01
2017-10-05T10:09:01.768Z,86.09
2017-10-05T10:11:31.143Z,85.83
2017-10-05T10:13:59.630Z,85.23
2017-10-05T10:16:28.942Z,84.90
2017-10-05T10:18:58.807Z,85.75
2017-10-05T10:21:27.488Z,85.73
2017-10-05T10:23:57.008Z,85.11
2017-10-05T10:26:25.853Z,84.76
2017-10-05T10:28:56.668Z,84.51
2017-10-05T10:31:25.312Z,83.68
2017-10-05T10:33:54.474Z,83.34
2017-10-05T10:36:23.645Z,80.39
2017-10-05T10:38:51.990Z,77.57
2017-10-05T10:41:21.100Z,76.38
2017-10-05T10:43:49.555Z,72.47
2017-10-05T10:46:18.786Z,73.24
2017-10-05T10:48:47.123Z,72.36
2017-10-05T10:51:16.440Z,70.40
2017-10-05T10:53:44.807Z,70.36
2017-10-05T10:56:13.137Z,71.48
2017-10-05T10:58:42.338Z,70.95
2017-10-05T11:01:11.529Z,65.03
2017-10-05T11:03:40.665Z,64.51
2017-10-05T11:06:09.039Z,68.18
2017-10-05T11:08:37.753Z,69.22
2017-10-05T11:11:07.432Z,70.58
2017-10-05T11:13:36.060Z,71.05
2017-10-05T11:16:04.444Z,72.01
2017-10-05T11:18:33.012Z,70.90
2017-10-05T11:21:01.527Z,72.74
2017-10-05T11:23:31.440Z,74.54
2017-10-05T11:25:59.773Z,75.96
2017-10-05T11:28:28.919Z,76.85
2017-10-05T11:30:57.290Z,77.81
2017-10-05T11:33:26.248Z,78.84
2017-10-05T11:35:55.146Z,78.41
2017-10-05T11:38:24.470Z,77.91
2017-10-05T11:40:52.842Z,81.21
2017-10-05T11:43:21.721Z,82.01
2017-10-05T11:45:50.047Z,81.83
2017-10-05T11:48:18.405Z,80.10
2017-10-05T11:50:46.775Z,80.46
2017-10-05T11:53:16.550Z,79.58
2017-10-05T11:55:45.907Z,76.81
2017-10-05T11:58:14.262Z,77.61
2017-10-05T12:00:42.915Z,78.81
2017-10-05T12:03:11.915Z,80.21
2017-10-05T12:05:40.359Z,81.87
2017-10-05T12:08:09.794Z,80.92
2017-10-05T12:10:38.581Z,79.67
2017-10-05T12:13:07.657Z,79.09
2017-10-05T12:15:37.285Z,76.21
2017-10-05T12:18:05.662Z,75.95
2017-10-05T12:20:34.782Z,75.24
2017-10-05T12:23:03.727Z,73.95
2017-10-05T12:25:32.837Z,74.12
2017-10-05T12:28:02.092Z,73.95
2017-10-05T12:30:30.972Z,73.88
2017-10-05T12:33:00.707Z,73.72
2017-10-05T12:35:29.114Z,73.75
2017-10-05T12:37:58.205Z,71.87
2017-10-05T12:40:27.701Z,72.50
2017-10-05T12:42:56.080Z,70.80
2017-10-05T12:45:24.429Z,71.01
2017-10-05T12:47:52.780Z,72.02
2017-10-05T12:50:21.233Z,71.78
2017-10-05T12:52:49.646Z,68.68
2017-10-05T12:55:18.008Z,68.75
2017-10-05T12:57:46.376Z,67.87
2017-10-05T13:00:15.729Z,66.65
2017-10-05T13:02:44.074Z,67.11
2017-10-05T13:05:13.825Z,65.85
2017-10-05T13:07:43.208Z,63.55
2017-10-05T13:10:11.542Z,62.45
2017-10-05T13:12:39.979Z,62.21
2017-10-05T13:15:08.333Z,59.82
2017-10-05T13:17:36.672Z,59.38
2017-10-05T13:20:06.520Z,60.92
2017-10-05T13:22:34.857Z,61.21
2017-10-05T13:25:03.325Z,60.13
2017-10-05T13:27:31.691Z,60.91
2017-10-05T13:30:00.641Z,59.26
2017-10-05T13:32:29.678Z,53.04
2017-10-05T13:34:58.362Z,48.38
2017-10-05T13:37:27.045Z,49.28
2017-10-05T13:39:55.393Z,48.42
2017-10-05T13:42:23.745Z,47.01
2017-10-05T13:44:53.786Z,47.73
2017-10-05T13:47:22.346Z,46.74
2017-10-05T13:49:51.478Z,45.49
2017-10-05T13:52:19.815Z,46.19
2017-10-05T13:54:49.365Z,44.05
2017-10-05T13:57:17.943Z,41.11
2017-10-05T13:59:47.885Z,40.54
2017-10-05T14:02:16.223Z,38.97
2017-10-05T14:04:45.363Z,37.30
2017-10-05T14:07:13.802Z,36.92
2017-10-05T14:09:42.181Z,36.59
2017-10-05T14:12:11.332Z,35.00
2017-10-05T14:14:40.120Z,33.09
2017-10-05T14:17:08.459Z,37.21
2017-10-05T14:19:37.003Z,36.92
2017-10-05T14:22:05.609Z,37.47
2017-10-05T14:24:34.005Z,35.92
2017-10-05T14:27:02.403Z,35.96
2017-10-05T14:29:30.722Z,34.67
2017-10-05T14:31:59.879Z,33.83
2017-10-05T14:34:28.254Z,36.10
2017-10-05T14:36:56.816Z,40.29
2017-10-05T14:39:25.173Z,41.85
2017-10-05T14:41:54.494Z,43.88
2017-10-05T14:44:22.896Z,44.12
2017-10-05T14:46:52.231Z,43.83
2017-10-05T14:49:21.930Z,41.25
2017-10-05T14:51:50.287Z,39.08
2017-10-05T14:54:18.616Z,38.50
2017-10-05T14:56:47.296Z,37.72
2017-10-05T14:59:15.630Z,36.24
2017-10-05T15:01:45.325Z,36.30
2017-10-05T15:04:14.514Z,35.47
2017-10-05T15:06:43.616Z,36.14
2017-10-05T15:09:13.172Z,37.23
2017-10-05T15:11:42.473Z,38.81
2017-10-05T15:14:11.033Z,40.53
2017-10-05T15:16:39.863Z,39.51
2017-10-05T15:19:09.007Z,41.90
2017-10-05T15:21:37.346Z,43.85
2017-10-05T15:24:05.694Z,44.13
2017-10-05T15:26:36.109Z,47.66
2017-10-05T15:29:05.086Z,49.59
2017-10-05T15:31:33.660Z,50.74
2017-10-05T15:34:02.471Z,51.58
2017-10-05T15:36:31.460Z,51.93
2017-10-05T15:38:59.849Z,52.80
2017-10-05T15:41:29.028Z,53.50
2017-10-05T15:43:58.292Z,54.89
2017-10-05T15:46:27.439Z,55.67
2017-10-05T15:48:55.874Z,56.64
2017-10-05T15:51:24.235Z,56.47
2017-10-05T15:53:52.884Z,56.77
2017-10-05T15:56:22.082Z,57.00
2017-10-05T15:58:50.466Z,57.31
2017-10-05T16:01:19.249Z,58.69
2017-10-05T16:03:48.468Z,59.19
2017-10-05T16:06:17.237Z,60.17
2017-10-05T16:08:46.302Z,60.33
2017-10-05T16:11:16.634Z,61.27
2017-10-05T16:13:44.989Z,61.86
2017-10-05T16:16:13.877Z,62.48
2017-10-05T16:18:42.232Z,64.09
2017-10-05T16:21:11.829Z,65.21
2017-10-05T16:23:40.335Z,64.84
2017-10-05T16:26:12.182Z,65.65
2017-10-05T16:28:40.534Z,66.03
2017-10-05T16:31:08.950Z,66.04
2017-10-05T16:33:37.475Z,67.17
2017-10-05T16:36:07.211Z,67.58
2017-10-05T16:38:35.715Z,67.72
2017-10-05T16:41:04.099Z,68.40
2017-10-05T16:43:32.447Z,68.35
2017-10-05T16:46:01.457Z,67.83
2017-10-05T16:48:31.026Z,68.18
2017-10-05T16:50:59.377Z,68.29
2017-10-05T16:53:28.552Z,69.68
2017-10-05T16:55:57.402Z,69.10
2017-10-05T16:58:26.220Z,69.04
2017-10-05T17:00:54.558Z,69.87
2017-10-05T17:03:23.704Z,70.81
2017-10-05T17:05:52.522Z,71.76
2017-10-05T17:08:20.872Z,71.76
2017-10-05T17:10:49.827Z,71.84
2017-10-05T17:13:19.114Z,71.42
2017-10-05T17:15:48.229Z,71.46
2017-10-05T17:18:17.610Z,70.90
2017-10-05T17:20:46.665Z,70.58
2017-10-05T17:23:15.528Z,70.88
2017-10-05T17:25:44.805Z,70.21
2017-10-05T17:28:13.927Z,70.07
2017-10-05T17:30:44.561Z,69.77
2017-10-05T17:33:12.945Z,69.80
2017-10-05T17:35:41.296Z,69.16
2017-10-05T17:38:09.667Z,69.46
2017-10-05T17:40:38.949Z,68.95
2017-10-05T17:43:08.282Z,69.13
2017-10-05T17:45:36.628Z,68.92
2017-10-05T17:48:05.004Z,68.86
2017-10-05T17:50:34.179Z,69.06
2017-10-05T17:53:02.554Z,69.29
2017-10-05T17:55:31.154Z,69.23
2017-10-05T17:57:59.677Z,69.68
2017-10-05T18:00:28.023Z,70.13
2017-10-05T18:02:57.026Z,70.52
2017-10-05T18:05:26.558Z,69.94
2017-10-05T18:07:54.903Z,69.58
2017-10-05T18:10:23.283Z,69.69
2017-10-05T18:12:51.844Z,70.06
2017-10-05T18:15:20.250Z,70.57
2017-10-05T18:17:48.998Z,70.30
2017-10-05T18:20:17.343Z,70.06
2017-10-05T18:22:46.625Z,70.67
2017-10-05T18:25:15.580Z,72.25
2017-10-05T18:27:44.486Z,72.68
2017-10-05T18:30:12.842Z,74.22
2017-10-05T18:32:41.208Z,74.23
2017-10-05T18:35:10.746Z,73.92
2017-10-05T18:37:39.848Z,73.12
2017-10-05T18:40:08.549Z,73.71
2017-10-05T18:42:38.176Z,73.82
2017-10-05T18:45:07.636Z,73.59
2017-10-05T18:47:36.186Z,73.67
2017-10-05T18:50:05.486Z,73.88
2017-10-05T18:52:33.845Z,72.98
2017-10-05T18:55:02.988Z,73.41
2017-10-05T18:57:31.390Z,73.59
2017-10-05T18:59:59.751Z,73.81
2017-10-05T19:02:28.167Z,73.62
2017-10-05T19:04:56.594Z,74.59
2017-10-05T19:07:24.941Z,74.75
2017-10-05T19:09:53.428Z,75.07
2017-10-05T19:12:22.449Z,75.24
2017-10-05T19:14:50.793Z,75.31
2017-10-05T19:17:20.996Z,75.12
2017-10-05T19:19:49.406Z,74.94
2017-10-05T19:22:17.761Z,75.44
2017-10-05T19:24:47.142Z,74.68
2017-10-05T19:27:15.520Z,74.98
2017-10-05T19:29:44.553Z,74.23
2017-10-05T19:32:14.064Z,74.64
2017-10-05T19:34:42.405Z,74.37
2017-10-05T19:37:12.449Z,74.89
2017-10-05T19:39:43.412Z,75.67
2017-10-05T19:42:11.779Z,75.89
2017-10-05T19:44:40.912Z,75.86
2017-10-05T19:47:10.070Z,75.44
2017-10-05T19:49:39.370Z,75.22
2017-10-05T19:52:07.936Z,75.60
2017-10-05T19:54:36.805Z,76.22
2017-10-05T19:57:05.658Z,76.82
2017-10-05T19:59:34.028Z,77.17
2017-10-05T20:02:02.820Z,78.11
2017-10-05T20:04:32.002Z,78.63
2017-10-05T20:07:01.855Z,78.24
2017-10-05T20:09:30.846Z,78.18
2017-10-05T20:11:59.227Z,77.80
2017-10-05T20:14:27.587Z,77.55
2017-10-05T20:17:07.567Z,77.73
